Eads, CO

6:47 PM MDT on August 27, 2014 (GMT -0600)
West Eads | Change Station
CLOSE
Current Station
Personal Weather Station
Location: Eads, CO
Elevation: 4219 ft
Nearby Weather Stations

Elev 4219 ft 38.48 °N, 102.80 °W | Updated 24 seconds ago

Clear
Clear
82.0 °F
Feels Like 80 °F
N
0.0
Wind Variable Wind from SW
Gusts 0.0 mph

Today
High -- | Low -- °F
--% Chance of Precip.
Yesterday
High -- | Low -- °F
Precip. -- in
6:15 AM 7:27 PM
Waxing Crescent, 5% visible
Pressure 29.78 in
Visibility 10.0 miles
Clouds Clear
Heat Index 80 °F
Dew Point 46 °F
Humidity 29%
Rainfall -999.00 in
Snow Depth Not available.
UV 1 out of 12
Pollen 8.00 out of 12
Air Quality Not available.
Flu Activity Not available.
METAR KLAA 272353Z AUTO 21005KT 10SM CLR 31/12 A2993 RMK AO2 SLP083 T03110117 10317 20267 56025

More Conditions Fewer Conditions

Pressure 29.78 in
Visibility 10.0 miles
Clouds Clear
Heat Index 80 °F
Dew Point 46 °F
Humidity 29%
Rainfall -999.00 in
Snow Depth Not available.
UV 1 out of 12
Pollen 8.00 out of 12
Air Quality Not available.
Flu Activity Not available.
METAR KLAA 272353Z AUTO 21005KT 10SM CLR 31/12 A2993 RMK AO2 SLP083 T03110117 10317 20267 56025

More Conditions Fewer Conditions

10-Day Weather Forecast

Almanac

Astronomy

Aug. 27, 2014 Rise Set
Actual Time 6:15 AM MDT 7:27 PM MDT
Civil Twilight 5:48 AM MDT 7:55 PM MDT
Nautical Twilight 5:15 AM MDT 8:27 PM MDT
Astronomical Twilight 4:41 AM MDT 9:01 PM MDT
Moon 8:11 AM MDT (8/27) 8:23 PM MDT (8/27)
Length of Visible Light 14h 07m
Length of Day
13h 12m
Tomorrow will be 2m 20s shorter.
Waxing Crescent, 5% of the Moon is Illuminated
Today
Waxing Crescent
Sep 2
First Quarter
Sep 8
Full
Sep 15
Last Quarter
Sep 24
New

Today's Extremes

State Highs State Lows

Community

WunderPhotos

Upload Photos

1,747,837 photos uploaded!

Nearby

Snow Depth

Station Depth Elevation
Medano Pass 0 in 9620 ft
Echo Lake 0 in 10600 ft
Jackwhacker Gulch 0 in 10960 ft
Rough And Tumble 1 in 10360 ft
Niwot 0 in 9910 ft

Earthquake Activity

City Distance Mag. Time & Date
No recent earthquake activity has been reported nearby.
Minimum magnitude displayed is 2.5.

Coastal Water Temperatures

Place Temperature
No Stations Reporting

Nearby Weather Stations